createdAt,value
2023-03-21T00:00:56.293Z,101384.09
2023-03-21T00:03:22.993Z,101392.59
2023-03-21T00:05:52.065Z,101347.91
2023-03-21T00:08:19.224Z,101407.44
2023-03-21T00:10:46.412Z,101346.22
2023-03-21T00:13:14.336Z,101369.19
2023-03-21T00:16:04.238Z,101390.84
2023-03-21T00:18:36.707Z,101394.00
2023-03-21T00:21:37.663Z,101390.44
2023-03-21T00:23:52.069Z,101387.97
2023-03-21T00:26:18.547Z,101299.91
2023-03-21T00:28:45.151Z,101383.78
2023-03-21T00:31:11.634Z,101390.66
2023-03-21T00:33:39.518Z,101390.78
2023-03-21T00:36:07.574Z,101378.19
2023-03-21T00:38:35.644Z,101388.31
2023-03-21T00:41:23.322Z,101390.88
2023-03-21T00:43:57.516Z,101383.91
2023-03-21T00:46:27.596Z,101385.94
2023-03-21T00:48:56.631Z,101377.88
2023-03-21T00:51:26.703Z,101372.25
2023-03-21T00:53:58.528Z,101376.25
2023-03-21T00:56:25.295Z,101322.88
2023-03-21T00:58:51.981Z,101371.31
2023-03-21T01:01:18.938Z,101343.03
2023-03-21T01:03:48.151Z,101354.53
2023-03-21T01:06:19.361Z,101366.66
2023-03-21T01:08:52.612Z,101358.69
2023-03-21T01:11:24.786Z,101357.00
2023-03-21T01:13:59.601Z,101361.50
2023-03-21T01:16:31.889Z,101359.78
2023-03-21T01:18:59.674Z,101357.31
2023-03-21T01:21:26.565Z,101341.72
2023-03-21T01:23:53.080Z,101300.31
2023-03-21T01:26:19.952Z,101345.50
2023-03-21T01:28:47.010Z,101321.06
2023-03-21T01:31:16.305Z,101339.25
2023-03-21T01:33:43.872Z,101358.28
2023-03-21T01:36:16.757Z,101378.28
2023-03-21T01:38:43.892Z,101339.78
2023-03-21T01:41:33.615Z,101290.84
2023-03-21T01:44:07.369Z,101345.91
2023-03-21T01:46:51.537Z,101319.34
2023-03-21T01:49:27.849Z,101351.38
2023-03-21T01:52:12.255Z,101349.34
2023-03-21T01:54:41.972Z,101288.69
2023-03-21T01:57:16.459Z,101337.81
2023-03-21T01:59:46.745Z,101341.59
2023-03-21T02:02:20.801Z,101305.56
2023-03-21T02:04:51.276Z,101316.66
2023-03-21T02:07:28.906Z,101334.28
2023-03-21T02:12:28.486Z,101331.91
2023-03-21T02:14:56.342Z,101341.19
2023-03-21T02:17:47.587Z,101172.72
2023-03-21T02:20:22.198Z,101329.00
2023-03-21T02:23:26.107Z,101327.16
2023-03-21T02:26:20.608Z,101320.38
2023-03-21T02:29:04.315Z,101329.91
2023-03-21T02:31:42.118Z,101313.72
2023-03-21T02:34:20.726Z,101325.53
2023-03-21T02:36:59.483Z,101322.78
2023-03-21T02:39:32.297Z,101314.97
2023-03-21T02:42:10.214Z,101300.78
2023-03-21T02:44:50.460Z,101310.69
2023-03-21T02:47:58.742Z,101316.78
2023-03-21T02:50:33.482Z,101305.06
2023-03-21T02:53:03.473Z,101310.91
2023-03-21T02:55:32.435Z,101316.31
2023-03-21T02:58:12.493Z,101298.75
2023-03-21T03:00:40.630Z,101288.09
2023-03-21T03:03:11.385Z,101301.75
2023-03-21T03:05:48.126Z,101297.34
2023-03-21T03:08:43.153Z,101205.78
2023-03-21T03:11:29.529Z,101303.06
2023-03-21T03:14:35.917Z,101296.28
2023-03-21T03:17:12.302Z,101300.47
2023-03-21T03:19:52.836Z,101256.63
2023-03-21T03:22:26.713Z,101292.59
2023-03-21T03:25:09.652Z,101209.84
2023-03-21T03:27:47.465Z,101276.88
2023-03-21T03:30:15.309Z,101271.72
2023-03-21T03:32:50.218Z,101276.38
2023-03-21T03:35:20.266Z,101282.69
2023-03-21T03:37:53.587Z,101277.13
2023-03-21T03:40:36.437Z,101279.38
2023-03-21T03:43:12.095Z,101283.47
2023-03-21T03:45:47.554Z,101287.41
2023-03-21T03:48:19.479Z,101280.44
2023-03-21T03:50:54.378Z,101282.59
2023-03-21T03:53:27.104Z,101282.91
2023-03-21T03:55:55.965Z,101284.97
2023-03-21T03:58:29.186Z,101276.09
2023-03-21T04:01:02.921Z,101277.78
2023-03-21T04:03:39.260Z,101277.13
2023-03-21T04:06:13.750Z,101226.53
2023-03-21T04:08:40.852Z,101267.63
2023-03-21T04:11:08.143Z,101268.81
2023-03-21T04:13:34.700Z,101275.56
2023-03-21T04:16:01.428Z,101269.69
2023-03-21T04:18:28.168Z,101272.06
2023-03-21T04:20:54.679Z,101293.16
2023-03-21T04:23:21.684Z,101276.44
2023-03-21T04:25:56.448Z,101281.56
2023-03-21T04:28:23.532Z,101279.25
2023-03-21T04:31:01.371Z,101277.94
2023-03-21T04:33:31.454Z,101249.94
2023-03-21T04:35:59.282Z,101276.31
2023-03-21T04:38:30.747Z,101269.84
2023-03-21T04:40:58.491Z,101275.88
2023-03-21T04:43:25.042Z,101276.91
2023-03-21T04:45:52.361Z,101262.84
2023-03-21T04:48:19.694Z,101271.81
2023-03-21T04:50:46.923Z,101217.44
2023-03-21T04:53:13.465Z,101267.91
2023-03-21T04:55:40.070Z,101250.41
2023-03-21T04:58:06.820Z,101276.91
2023-03-21T05:00:37.580Z,101274.56
2023-03-21T05:03:09.357Z,101277.72
2023-03-21T05:05:37.866Z,101279.44
2023-03-21T05:08:06.184Z,101273.81
2023-03-21T05:10:33.350Z,101276.44
2023-03-21T05:13:00.233Z,101254.44
2023-03-21T05:15:26.750Z,101214.53
2023-03-21T05:17:53.224Z,101278.00
2023-03-21T05:20:19.868Z,101270.19
2023-03-21T05:22:50.257Z,101190.91
2023-03-21T05:25:18.219Z,101262.25
2023-03-21T05:27:45.491Z,101207.09
2023-03-21T05:30:17.974Z,101267.53
2023-03-21T05:32:44.618Z,101248.88
2023-03-21T05:35:11.166Z,101250.50
2023-03-21T05:37:38.492Z,101254.56
2023-03-21T05:40:06.951Z,101266.00
2023-03-21T05:42:33.477Z,101261.63
2023-03-21T05:45:00.889Z,101237.66
2023-03-21T05:47:27.401Z,101273.84
2023-03-21T05:49:53.927Z,101244.47
2023-03-21T05:52:20.545Z,101185.78
2023-03-21T05:54:47.118Z,101180.38
2023-03-21T05:57:13.881Z,101238.75
2023-03-21T05:59:40.551Z,101236.97
2023-03-21T06:02:07.058Z,101167.09
2023-03-21T06:04:33.607Z,101248.22
2023-03-21T06:07:00.126Z,101248.66
2023-03-21T06:09:26.689Z,101244.94
2023-03-21T06:11:55.983Z,101252.22
2023-03-21T06:14:24.243Z,101240.13
2023-03-21T06:16:51.132Z,101252.78
2023-03-21T06:19:17.672Z,101240.25
2023-03-21T06:21:44.234Z,101233.78
2023-03-21T06:24:10.773Z,101237.09
2023-03-21T06:26:37.792Z,101239.19
2023-03-21T06:29:04.671Z,101239.19
2023-03-21T06:31:31.517Z,101247.84
2023-03-21T06:33:58.158Z,101235.44
2023-03-21T06:36:25.271Z,101241.31
2023-03-21T06:38:52.121Z,101222.81
2023-03-21T06:41:18.786Z,101235.91
2023-03-21T06:43:45.990Z,101191.00
2023-03-21T06:46:12.519Z,101236.28
2023-03-21T06:48:44.428Z,101230.00
2023-03-21T06:51:12.829Z,101217.91
2023-03-21T06:53:39.718Z,101234.50
2023-03-21T06:56:06.514Z,101245.78
2023-03-21T06:58:33.131Z,101240.91
2023-03-21T07:01:01.725Z,101235.59
2023-03-21T07:03:29.142Z,101247.50
2023-03-21T07:05:56.213Z,101249.84
2023-03-21T07:08:22.824Z,101223.59
2023-03-21T07:13:30.672Z,101208.00
2023-03-21T07:15:57.468Z,101196.38
2023-03-21T07:18:24.313Z,101252.06
2023-03-21T07:20:51.585Z,101250.78
2023-03-21T07:23:23.021Z,101224.91
2023-03-21T07:25:50.745Z,101236.81
2023-03-21T07:28:18.185Z,101243.56
2023-03-21T07:30:45.913Z,101255.00
2023-03-21T07:33:12.908Z,101216.22
2023-03-21T07:35:39.775Z,101214.25
2023-03-21T07:38:06.931Z,101233.38
2023-03-21T07:40:33.746Z,101220.72
2023-03-21T07:43:00.222Z,101216.75
2023-03-21T07:45:27.435Z,101247.75
2023-03-21T07:47:53.987Z,101217.38
2023-03-21T07:50:21.477Z,101239.44
2023-03-21T07:52:48.619Z,101239.81
2023-03-21T07:55:17.295Z,101223.50
2023-03-21T07:57:44.260Z,101242.25
2023-03-21T08:00:12.644Z,101246.25
2023-03-21T08:02:39.248Z,101237.84
2023-03-21T08:05:06.163Z,101241.78
2023-03-21T08:07:32.608Z,101196.88
2023-03-21T08:09:59.058Z,101235.28
2023-03-21T08:12:25.715Z,101226.72
2023-03-21T08:14:52.297Z,101231.09
2023-03-21T08:17:18.960Z,101245.13
2023-03-21T08:19:45.898Z,101231.22
2023-03-21T08:22:12.530Z,101207.66
2023-03-21T08:24:39.072Z,101227.78
2023-03-21T08:27:05.908Z,101215.34
2023-03-21T08:29:32.412Z,101175.25
2023-03-21T08:31:58.878Z,101196.50
2023-03-21T08:34:26.742Z,101226.94
2023-03-21T08:36:53.285Z,101161.50
2023-03-21T08:39:21.858Z,101173.66
2023-03-21T08:41:48.495Z,101233.22
2023-03-21T08:44:16.957Z,101234.50
2023-03-21T08:46:43.573Z,101231.22
2023-03-21T08:49:10.100Z,101220.75
2023-03-21T08:51:37.714Z,101221.72
2023-03-21T08:54:04.448Z,101222.53
2023-03-21T08:56:31.231Z,101223.56
2023-03-21T08:58:59.089Z,101217.41
2023-03-21T09:01:26.712Z,101200.81
2023-03-21T09:03:53.326Z,101222.44
2023-03-21T09:06:19.843Z,101207.59
2023-03-21T09:08:46.503Z,101215.69
2023-03-21T09:11:13.256Z,101222.09
2023-03-21T09:13:40.360Z,101175.22
2023-03-21T09:16:07.425Z,101231.97
2023-03-21T09:18:48.804Z,101217.75
2023-03-21T09:21:18.511Z,101227.31
2023-03-21T09:23:45.408Z,101222.16
2023-03-21T09:26:12.614Z,101218.16
2023-03-21T09:28:39.305Z,101153.22
2023-03-21T09:31:08.378Z,101185.50
2023-03-21T09:33:35.470Z,101224.88
2023-03-21T09:36:03.788Z,101232.22
2023-03-21T09:38:37.739Z,101212.97
2023-03-21T09:41:26.352Z,101235.94
2023-03-21T09:44:21.588Z,101228.94
2023-03-21T09:47:04.696Z,101233.63
2023-03-21T09:49:38.265Z,101179.41
2023-03-21T09:52:13.388Z,101210.38
2023-03-21T09:54:43.920Z,101237.66
2023-03-21T09:57:37.423Z,101238.13
2023-03-21T10:00:16.240Z,101227.13
2023-03-21T10:02:47.254Z,101227.84
2023-03-21T10:05:20.383Z,101230.75
2023-03-21T10:08:05.701Z,101229.19
2023-03-21T10:10:37.384Z,101229.78
2023-03-21T10:13:12.111Z,101226.38
2023-03-21T10:15:38.834Z,101159.81
2023-03-21T10:18:07.687Z,101219.25
2023-03-21T10:20:37.874Z,101209.06
2023-03-21T10:23:07.991Z,101212.88
2023-03-21T10:25:42.133Z,101196.91
2023-03-21T10:28:19.403Z,101195.28
2023-03-21T10:30:56.811Z,101215.41
2023-03-21T10:33:29.559Z,101204.63
2023-03-21T10:36:00.135Z,101214.31
2023-03-21T10:38:27.414Z,101196.19
2023-03-21T10:40:54.387Z,101165.78
2023-03-21T10:43:27.054Z,101212.38
2023-03-21T10:45:57.477Z,101211.06
2023-03-21T10:48:24.782Z,101181.63
2023-03-21T10:50:55.723Z,101173.53
2023-03-21T10:53:32.392Z,101189.38
2023-03-21T10:56:06.706Z,101199.69
2023-03-21T10:58:39.573Z,101197.97
2023-03-21T11:01:10.094Z,101149.13
2023-03-21T11:03:39.318Z,101176.69
2023-03-21T11:06:10.097Z,101198.75
2023-03-21T11:08:44.140Z,101187.75
2023-03-21T11:11:20.253Z,101175.88
2023-03-21T11:13:56.683Z,101181.72
2023-03-21T11:16:27.343Z,101178.06
2023-03-21T11:19:01.500Z,101170.22
2023-03-21T11:21:29.736Z,101120.31
2023-03-21T11:23:58.455Z,101174.31
2023-03-21T11:26:32.537Z,101164.31
2023-03-21T11:28:59.339Z,101161.97
2023-03-21T11:31:42.029Z,101165.03
2023-03-21T11:34:09.956Z,101166.13
2023-03-21T11:36:41.597Z,101163.66
2023-03-21T11:39:11.240Z,101160.91
2023-03-21T11:41:41.694Z,101148.63
2023-03-21T11:44:26.582Z,101141.06
2023-03-21T11:46:54.409Z,100919.38
2023-03-21T11:49:22.041Z,100833.91
2023-03-21T11:52:14.146Z,100828.06
2023-03-21T11:54:50.008Z,100901.41
2023-03-21T11:57:57.965Z,100928.78
2023-03-21T12:00:30.234Z,100952.53
2023-03-21T12:03:46.856Z,100945.75
2023-03-21T12:06:35.163Z,100960.84
2023-03-21T12:09:20.891Z,100906.28
2023-03-21T12:12:02.372Z,100816.88
2023-03-21T12:14:46.647Z,100878.03
2023-03-21T12:17:43.240Z,100905.91
2023-03-21T12:20:21.629Z,100887.81
2023-03-21T12:22:52.731Z,100737.88
2023-03-21T12:25:27.885Z,100776.94
2023-03-21T12:28:30.128Z,100858.63
2023-03-21T12:31:08.129Z,100900.06
2023-03-21T12:34:13.198Z,100838.50
2023-03-21T12:36:39.595Z,100923.97
2023-03-21T12:39:22.722Z,100879.28
2023-03-21T12:42:01.424Z,100940.38
2023-03-21T12:44:33.352Z,100958.59
2023-03-21T12:47:06.836Z,100907.94
2023-03-21T12:49:41.619Z,100912.06
2023-03-21T12:52:14.536Z,100914.06
2023-03-21T12:54:59.270Z,100898.72
2023-03-21T12:57:34.865Z,100907.59
2023-03-21T13:00:15.605Z,100898.09
2023-03-21T13:02:49.258Z,100890.41
2023-03-21T13:05:25.282Z,100897.63
2023-03-21T13:08:12.215Z,100893.19
2023-03-21T13:10:41.213Z,100861.84
2023-03-21T13:13:21.908Z,100854.97
2023-03-21T13:16:00.788Z,100865.91
2023-03-21T13:18:33.252Z,100857.41
2023-03-21T13:21:26.570Z,100877.94
2023-03-21T13:24:00.484Z,100864.25
2023-03-21T13:26:51.371Z,100849.25
2023-03-21T13:29:28.136Z,100855.31
2023-03-21T13:31:59.861Z,100832.13
2023-03-21T13:34:26.918Z,100827.56
2023-03-21T13:36:56.553Z,100801.88
2023-03-21T13:39:28.770Z,100812.53
2023-03-21T13:41:56.033Z,100788.25
2023-03-21T13:44:50.303Z,100811.94
2023-03-21T13:47:31.788Z,100804.59
2023-03-21T13:50:20.365Z,100815.03
2023-03-21T13:53:02.250Z,100809.66
2023-03-21T13:55:31.094Z,100825.28
2023-03-21T13:57:57.654Z,100827.56
2023-03-21T14:00:31.043Z,100774.19
2023-03-21T14:03:20.629Z,100767.28
2023-03-21T14:05:51.379Z,100808.19
2023-03-21T14:08:31.320Z,100803.63
2023-03-21T14:11:10.078Z,100790.59
2023-03-21T14:13:48.253Z,100733.38
2023-03-21T14:16:18.782Z,100776.88
2023-03-21T14:18:56.002Z,100703.81
2023-03-21T14:21:29.499Z,100261.09
2023-03-21T14:24:00.777Z,100327.69
2023-03-21T14:26:42.105Z,100258.03
2023-03-21T14:29:25.555Z,100027.16
2023-03-21T14:31:53.776Z,100045.63
2023-03-21T14:34:20.538Z,100138.34
2023-03-21T14:36:56.890Z,100289.13
2023-03-21T14:39:29.449Z,100370.16
2023-03-21T14:42:02.571Z,100443.34
2023-03-21T14:44:58.106Z,100493.78
2023-03-21T14:47:28.050Z,100439.97
2023-03-21T14:49:56.436Z,100520.75
2023-03-21T14:52:32.365Z,100569.09
2023-03-21T14:55:00.892Z,100178.81
2023-03-21T14:57:31.090Z,100111.94
2023-03-21T15:00:01.955Z,100137.03
2023-03-21T15:02:34.525Z,100247.06
2023-03-21T15:05:20.363Z,100352.53
2023-03-21T15:07:56.554Z,100425.94
2023-03-21T15:10:24.036Z,100450.59
2023-03-21T15:12:59.031Z,100510.63
2023-03-21T15:15:28.150Z,100499.19
2023-03-21T15:17:59.539Z,100172.44
2023-03-21T15:20:32.167Z,100053.91
2023-03-21T15:23:03.957Z,100104.16
2023-03-21T15:25:34.832Z,100196.13
2023-03-21T15:28:02.031Z,99950.75
2023-03-21T15:30:30.898Z,99601.56
2023-03-21T15:33:05.094Z,99611.88
2023-03-21T15:35:44.562Z,99779.38
2023-03-21T15:38:33.458Z,100157.81
2023-03-21T15:41:25.797Z,100403.44
2023-03-21T15:44:09.653Z,100486.53
2023-03-21T15:46:47.787Z,100517.03
2023-03-21T15:49:17.201Z,100508.97
2023-03-21T15:51:47.651Z,100500.63
2023-03-21T15:54:17.761Z,100532.25
2023-03-21T15:56:46.139Z,100507.53
2023-03-21T15:59:17.953Z,100564.88
2023-03-21T16:01:48.869Z,100545.19
2023-03-21T16:04:16.372Z,100518.31
2023-03-21T16:06:53.717Z,100554.78
2023-03-21T16:09:26.402Z,100537.22
2023-03-21T16:11:55.808Z,100573.75
2023-03-21T16:14:23.630Z,100551.88
2023-03-21T16:16:51.002Z,100606.81
2023-03-21T16:19:18.316Z,100609.66
2023-03-21T16:21:44.896Z,100578.72
2023-03-21T16:24:13.495Z,100581.19
2023-03-21T16:26:47.668Z,100577.75
2023-03-21T16:29:15.739Z,99936.56
2023-03-21T16:31:42.447Z,99983.59
2023-03-21T16:34:09.375Z,100223.28
2023-03-21T16:36:38.453Z,100443.50
2023-03-21T16:39:16.349Z,100534.56
2023-03-21T16:41:42.879Z,100577.72
2023-03-21T16:44:09.387Z,100607.69
2023-03-21T16:46:35.983Z,100599.34
2023-03-21T16:49:02.576Z,100608.88
2023-03-21T16:51:35.032Z,100589.78
2023-03-21T16:54:02.897Z,100564.59
2023-03-21T16:56:41.930Z,100606.84
2023-03-21T16:59:12.704Z,100608.81
2023-03-21T17:01:41.393Z,100570.50
2023-03-21T17:04:09.068Z,100594.69
2023-03-21T17:06:44.620Z,100609.75
2023-03-21T17:09:13.283Z,100612.47
2023-03-21T17:11:41.665Z,100565.53
2023-03-21T17:14:10.373Z,100590.81
2023-03-21T17:16:36.928Z,100596.53
2023-03-21T17:19:06.871Z,100616.59
2023-03-21T17:21:34.687Z,100594.00
2023-03-21T17:24:01.534Z,100625.81
2023-03-21T17:26:29.413Z,100633.19
2023-03-21T17:28:57.024Z,100555.38
2023-03-21T17:31:25.449Z,100576.59
2023-03-21T17:33:52.019Z,100595.09
2023-03-21T17:36:30.569Z,100590.41
2023-03-21T17:38:57.919Z,100595.78
2023-03-21T17:41:24.568Z,100594.16
2023-03-21T17:43:51.938Z,100583.75
2023-03-21T17:46:22.388Z,100570.50
2023-03-21T17:48:49.327Z,100602.16
2023-03-21T17:51:17.268Z,100571.19
2023-03-21T17:53:45.454Z,100595.88
2023-03-21T17:56:18.996Z,100584.59
2023-03-21T17:58:45.719Z,100591.69
2023-03-21T18:01:12.179Z,100594.97
2023-03-21T18:03:39.154Z,100598.03
2023-03-21T18:06:06.374Z,100567.94
2023-03-21T18:08:33.106Z,100549.03
2023-03-21T18:10:59.661Z,100580.75
2023-03-21T18:13:26.467Z,100536.63
2023-03-21T18:15:53.130Z,100498.03
2023-03-21T18:18:19.814Z,100542.66
2023-03-21T18:20:52.577Z,100511.00
2023-03-21T18:23:20.872Z,100557.91
2023-03-21T18:25:47.805Z,100561.72
2023-03-21T18:28:19.444Z,100545.53
2023-03-21T18:33:40.614Z,100557.31
2023-03-21T18:36:09.121Z,100556.13
2023-03-21T18:38:37.076Z,100539.13
2023-03-21T18:41:04.283Z,100545.53
2023-03-21T18:46:17.943Z,100493.13
2023-03-21T18:48:44.677Z,100478.63
2023-03-21T18:51:11.536Z,100537.16
2023-03-21T18:53:38.130Z,100546.03
2023-03-21T18:56:09.928Z,100534.75
2023-03-21T18:58:37.140Z,100541.25
2023-03-21T19:01:05.075Z,100536.97
2023-03-21T19:03:36.672Z,100533.41
2023-03-21T19:06:05.518Z,100533.78
2023-03-21T19:08:34.836Z,100549.25
2023-03-21T19:11:06.044Z,100540.19
2023-03-21T19:13:33.550Z,100512.66
2023-03-21T19:16:02.344Z,100556.19
2023-03-21T19:18:50.356Z,100511.13
2023-03-21T19:21:21.545Z,100535.19
2023-03-21T19:24:22.984Z,100512.00
2023-03-21T19:26:34.594Z,100507.16
2023-03-21T19:29:01.364Z,100488.97
2023-03-21T19:31:27.898Z,100531.16
2023-03-21T19:33:54.500Z,100483.31
2023-03-21T19:36:23.149Z,100533.06
2023-03-21T19:38:51.005Z,100541.13
2023-03-21T19:41:18.588Z,100504.78
2023-03-21T19:43:53.545Z,100534.75
2023-03-21T19:46:23.192Z,100497.09
2023-03-21T19:48:50.278Z,100507.38
2023-03-21T19:51:28.636Z,100489.88
2023-03-21T19:53:56.897Z,100529.78
2023-03-21T19:56:26.745Z,100480.94
2023-03-21T19:58:55.039Z,100522.25
2023-03-21T20:01:22.109Z,100502.09
2023-03-21T20:03:48.685Z,100509.63
2023-03-21T20:06:16.229Z,100516.31
2023-03-21T20:09:17.215Z,100512.47
2023-03-21T20:11:29.232Z,100517.03
2023-03-21T20:13:56.344Z,100513.31
2023-03-21T20:16:23.159Z,100491.47
2023-03-21T20:18:49.792Z,100523.59
2023-03-21T20:21:18.444Z,100490.19
2023-03-21T20:23:50.959Z,100511.66
2023-03-21T20:26:18.420Z,100515.50
2023-03-21T20:29:00.256Z,100520.44
2023-03-21T20:31:37.700Z,100484.50
2023-03-21T20:34:04.471Z,100473.28
2023-03-21T20:36:40.063Z,100498.44
2023-03-21T20:39:06.911Z,100504.84
2023-03-21T20:41:33.438Z,100465.34
2023-03-21T20:46:48.064Z,100515.47
2023-03-21T20:49:15.620Z,100515.88
2023-03-21T20:54:29.937Z,100511.50
2023-03-21T20:56:57.281Z,100498.88
2023-03-21T20:59:27.737Z,100502.69
2023-03-21T21:01:56.211Z,100486.38
2023-03-21T21:04:39.500Z,100529.66
2023-03-21T21:07:15.925Z,100502.31
2023-03-21T21:09:46.956Z,100515.66
2023-03-21T21:12:15.078Z,100422.78
2023-03-21T21:14:43.081Z,100540.22
2023-03-21T21:17:28.366Z,100534.53
2023-03-21T21:19:57.126Z,100541.75
2023-03-21T21:22:23.936Z,100537.38
2023-03-21T21:24:50.414Z,100536.22
2023-03-21T21:27:17.014Z,100522.53
2023-03-21T21:29:43.683Z,100510.78
2023-03-21T21:32:11.373Z,100512.50
2023-03-21T21:34:38.253Z,100481.25
2023-03-21T21:37:05.197Z,100493.03
2023-03-21T21:39:37.947Z,100555.53
2023-03-21T21:42:05.460Z,100543.84
2023-03-21T21:44:31.984Z,100544.63
2023-03-21T21:46:59.167Z,100554.78
2023-03-21T21:49:26.763Z,100518.47
2023-03-21T21:51:53.314Z,100574.31
2023-03-21T21:54:19.830Z,100565.34
2023-03-21T21:56:49.214Z,100589.66
2023-03-21T21:59:18.521Z,100590.09
2023-03-21T22:01:46.790Z,100593.63
2023-03-21T22:04:14.562Z,100579.84
2023-03-21T22:06:42.256Z,100616.50
2023-03-21T22:09:09.000Z,100598.31
2023-03-21T22:11:35.932Z,100611.09
2023-03-21T22:14:03.059Z,100553.69
2023-03-21T22:16:29.678Z,100610.53
2023-03-21T22:18:56.280Z,100588.06
2023-03-21T22:21:23.004Z,100610.06
2023-03-21T22:23:49.641Z,100575.94
2023-03-21T22:26:16.432Z,100609.38
2023-03-21T22:28:43.577Z,100621.59
2023-03-21T22:31:15.814Z,100603.81
2023-03-21T22:33:43.506Z,100626.91
2023-03-21T22:36:10.766Z,100554.00
2023-03-21T22:38:38.276Z,100611.91
2023-03-21T22:41:06.642Z,100588.31
2023-03-21T22:43:34.396Z,100615.75
2023-03-21T22:46:03.248Z,100606.94
2023-03-21T22:48:30.286Z,100615.91
2023-03-21T22:50:58.409Z,100592.47
2023-03-21T22:53:25.523Z,100606.94
2023-03-21T22:55:52.042Z,100575.81
2023-03-21T22:58:18.629Z,100574.66
2023-03-21T23:00:45.576Z,100518.94
2023-03-21T23:03:13.088Z,100582.13
2023-03-21T23:05:41.176Z,100586.13
2023-03-21T23:08:07.685Z,100614.75
2023-03-21T23:10:37.008Z,100585.22
2023-03-21T23:13:04.207Z,100610.69
2023-03-21T23:15:30.691Z,100612.38
2023-03-21T23:17:57.176Z,100607.63
2023-03-21T23:20:23.613Z,100578.50
2023-03-21T23:22:50.065Z,100556.19
2023-03-21T23:25:17.004Z,100557.28
2023-03-21T23:27:43.576Z,100540.63
2023-03-21T23:30:10.398Z,100575.19
2023-03-21T23:32:36.911Z,100587.00
2023-03-21T23:35:03.746Z,100558.03
2023-03-21T23:37:30.232Z,100588.78
2023-03-21T23:39:56.937Z,100584.97
2023-03-21T23:42:25.135Z,100568.16
2023-03-21T23:44:51.580Z,100577.38
2023-03-21T23:47:18.092Z,100572.13
2023-03-21T23:49:49.309Z,100543.09
2023-03-21T23:52:16.194Z,100580.38
2023-03-21T23:54:42.691Z,100575.25
2023-03-21T23:57:09.378Z,100555.59
2023-03-21T23:59:36.056Z,100569.88
